Hinckley, OH (44233)

11:08 PM EDT on August 25, 2016 (GMT -0400)
Hinckley, Oh | | Change Station

Elev 886 ft 41.24 °N, 81.73 °W | Updated 14 minutes ago

Partly Cloudy
Partly Cloudy
71.8 °F
Feels Like 71.8 °F
N
0.0
Wind Variable Wind from ESE

Today
High -- | Low -- °F
--% Chance of Precip.
Yesterday
High -- | Low -- °F
Precip. -- in
Pressure 30.02 in
Visibility 10.0 miles
Clouds Few 6500 ft
Dew Point 71 °F
Humidity 98%
Rainfall 0.44 in
Snow Depth Not available.
6:46 AM 8:10 PM
Last Quarter, 39% visible
METAR KCLE 260251Z 29008KT 10SM FEW065 27/20 A3004 RMK AO2 SLP164 T02720200 51011
Pressure 30.02 in
Visibility 10.0 miles
Clouds Few 6500 ft
Dew Point 71 °F
Humidity 98%
Rainfall 0.44 in
Snow Depth Not available.
6:46 AM 8:10 PM
Last Quarter, 39% visible
METAR KCLE 260251Z 29008KT 10SM FEW065 27/20 A3004 RMK AO2 SLP164 T02720200 51011
A tropical disturbance pushing toward the Bahamas, is expected to develop into a tropical depression or storm, and will likely target Florida and the Gulf Coast this weekend into next week.

Right now, the disturbance remains a broad area of low pressure pushing through the Dominican Republic and Haiti, headed toward the southeast Bahamas. Rainfall totals over 3 inches (with locally higher amounts) are expected in HispaƱiola, particularly over elevated terrain.

10-Day Weather Forecast

Almanac

Astronomy

Aug. 25, 2016 Rise Set
Actual Time
Civil Twilight
Nautical Twilight
Astronomical Twilight
Moon
Length of Visible Light
Length of Day
Tomorrow will be .
, % of the Moon is Illuminated

Today's Extremes

State Highs State Lows

Community

WunderPhotos

Upload Photos

1,935,036 photos uploaded!

WunderBlog® & News

Nearby

Air Quality

  Air Quality AQ Index Pollutant
Not available.

Snow Depth

Station Depth Elevation

Earthquake Activity

City Distance Mag. Time & Date
Minimum magnitude displayed is 2.5.

Coastal Water Temperatures

Place Temperature

Stations

Nearby Weather Stations

Station Location Temp. Windchill Dew Point Humidity Wind Precip. Elev Updated Type
                   

Watches & Warnings

There are currently no watches in effect.